Time;durP1;ratioP1;P1;durP2;ratioP2;P2;SDS_P1;SDS_P2;PMS_P1;PMS_P2;Temp;Humidity;BMP_temperature;BMP_pressure;BME280_temperature;BME280_humidity;BME280_pressure;Samples;Min_cycle;Max_cycle;Signal;HPM_P1;HPM_P2
2021/01/30 00:00:41;;;;;;;5.53;1.10;;;7.50;99.90;;;;;;5038064;28;20453;-79
2021/01/30 00:03:09;;;;;;;1.67;0.80;;;7.50;99.90;;;;;;5038937;28;20444;-80
2021/01/30 00:05:35;;;;;;;1.27;0.70;;;7.40;99.90;;;;;;5030842;28;20493;-80
2021/01/30 00:08:01;;;;;;;1.67;0.90;;;7.50;99.90;;;;;;5038590;28;20422;-80
2021/01/30 00:10:27;;;;;;;2.17;0.73;;;7.40;99.90;;;;;;5048208;28;20503;-80
2021/01/30 00:12:53;;;;;;;1.90;0.60;;;7.40;99.90;;;;;;5038840;28;20423;-80
2021/01/30 00:15:24;;;;;;;2.47;0.70;;;7.40;99.90;;;;;;5042743;28;20184;-80
2021/01/30 00:17:52;;;;;;;2.03;0.50;;;7.40;99.90;;;;;;5036295;28;20456;-79
2021/01/30 00:20:23;;;;;;;1.37;0.60;;;7.40;99.90;;;;;;5038134;28;20440;-80
2021/01/30 00:22:50;;;;;;;3.43;0.97;;;7.40;99.90;;;;;;5038583;28;20441;-80
2021/01/30 00:25:21;;;;;;;4.07;1.77;;;7.40;99.90;;;;;;5037607;28;20540;-80
2021/01/30 00:27:46;;;;;;;3.90;0.90;;;7.40;99.90;;;;;;5036408;28;20466;-79
2021/01/30 00:30:15;;;;;;;1.10;0.60;;;7.40;99.90;;;;;;5036670;28;20742;-80
2021/01/30 00:32:40;;;;;;;1.60;0.60;;;7.40;99.90;;;;;;5038228;28;20188;-79
2021/01/30 00:35:07;;;;;;;4.53;0.60;;;7.40;99.90;;;;;;5035050;28;20439;-80
2021/01/30 00:37:32;;;;;;;3.90;0.50;;;7.40;99.90;;;;;;5037897;28;20278;-79
2021/01/30 00:39:58;;;;;;;4.70;0.70;;;7.40;99.90;;;;;;5038421;28;20423;-79
2021/01/30 00:42:25;;;;;;;0.73;0.60;;;7.30;99.90;;;;;;5034795;28;20186;-79
2021/01/30 00:44:54;;;;;;;1.57;0.50;;;7.30;99.90;;;;;;5036335;28;20178;-79
2021/01/30 00:47:21;;;;;;;7.03;0.53;;;7.30;99.90;;;;;;5035241;28;20469;-79
2021/01/30 00:49:47;;;;;;;1.70;0.60;;;7.30;99.90;;;;;;5034865;28;20895;-79
2021/01/30 00:52:16;;;;;;;0.80;0.50;;;7.30;99.90;;;;;;5040948;28;20491;-79
2021/01/30 00:54:42;;;;;;;1.57;0.60;;;7.30;99.90;;;;;;5039627;28;20448;-80
2021/01/30 00:57:08;;;;;;;1.33;0.83;;;7.30;99.90;;;;;;5035821;28;20504;-80
2021/01/30 00:59:34;;;;;;;1.87;0.80;;;7.30;99.90;;;;;;5040523;28;20434;-79
2021/01/30 01:01:59;;;;;;;1.83;0.67;;;7.20;99.90;;;;;;5035943;28;20186;-79
2021/01/30 01:04:25;;;;;;;0.53;0.50;;;7.20;99.90;;;;;;5033940;28;20468;-79
2021/01/30 01:06:50;;;;;;;1.77;0.60;;;7.10;99.90;;;;;;5041371;28;20222;-79
2021/01/30 01:09:17;;;;;;;4.13;0.60;;;7.10;99.90;;;;;;5036354;28;20744;-79
2021/01/30 01:11:46;;;;;;;3.23;0.80;;;7.10;99.90;;;;;;5037461;28;20181;-79
2021/01/30 01:14:11;;;;;;;1.13;0.70;;;7.10;99.90;;;;;;5035344;28;20435;-78
2021/01/30 01:16:37;;;;;;;0.67;0.53;;;7.00;99.90;;;;;;5034988;28;20502;-78
2021/01/30 01:19:04;;;;;;;1.70;0.50;;;7.00;99.90;;;;;;5029845;28;20444;-79
2021/01/30 01:21:30;;;;;;;3.70;0.90;;;7.00;99.90;;;;;;5034230;28;20192;-79
2021/01/30 01:23:55;;;;;;;1.13;0.60;;;7.00;99.90;;;;;;5035359;28;20609;-79
2021/01/30 01:26:21;;;;;;;2.60;0.90;;;7.10;99.90;;;;;;5035212;28;20534;-79
2021/01/30 01:28:49;;;;;;;4.50;1.10;;;7.10;99.90;;;;;;5034384;28;20560;-79
2021/01/30 01:31:16;;;;;;;0.70;0.63;;;7.20;99.90;;;;;;5033284;28;20647;-79
2021/01/30 01:33:42;;;;;;;0.70;0.60;;;7.20;99.90;;;;;;5031637;28;20488;-79
2021/01/30 01:36:09;;;;;;;1.20;0.70;;;7.20;99.90;;;;;;5031871;28;20448;-80
2021/01/30 01:38:34;;;;;;;0.77;0.43;;;7.20;99.90;;;;;;5030723;28;20229;-79
2021/01/30 01:41:01;;;;;;;5.83;0.60;;;7.20;99.90;;;;;;5029980;28;20437;-80
2021/01/30 01:43:28;;;;;;;2.00;0.60;;;7.20;99.90;;;;;;5036704;28;20214;-79
2021/01/30 01:46:20;;;;;;;1.50;0.80;;;7.30;99.90;;;;;;5036155;28;20462;-79
2021/01/30 01:49:09;;;;;;;1.80;0.50;;;7.40;99.90;;;;;;5029961;28;20470;-80
2021/01/30 01:51:47;;;;;;;0.70;0.50;;;7.40;99.90;;;;;;5035730;28;20950;-80
2021/01/30 01:54:20;;;;;;;6.67;1.07;;;7.40;99.90;;;;;;5036202;28;20427;-80
2021/01/30 01:56:49;;;;;;;1.50;0.60;;;7.40;99.90;;;;;;5037033;28;20489;-79
2021/01/30 01:59:17;;;;;;;1.10;0.50;;;7.40;99.90;;;;;;5034857;28;20538;-80
2021/01/30 02:01:44;;;;;;;1.80;0.80;;;7.40;99.90;;;;;;5033050;28;20451;-79
2021/01/30 02:04:13;;;;;;;4.07;0.70;;;7.50;99.90;;;;;;5036577;28;20421;-79
2021/01/30 02:06:42;;;;;;;3.07;0.70;;;7.40;99.90;;;;;;5038644;28;21061;-79
2021/01/30 02:09:11;;;;;;;0.90;0.43;;;7.40;99.90;;;;;;5034922;28;20470;-80
2021/01/30 02:11:37;;;;;;;1.83;0.60;;;7.40;99.90;;;;;;5035796;28;20459;-79
2021/01/30 02:14:05;;;;;;;1.70;0.50;;;7.40;99.90;;;;;;5035191;28;20423;-79
2021/01/30 02:16:46;;;;;;;0.63;0.43;;;7.40;99.90;;;;;;5032671;28;20827;-79
2021/01/30 02:19:30;;;;;;;1.57;0.60;;;7.40;99.90;;;;;;5037986;28;20433;-80
2021/01/30 02:22:20;;;;;;;1.37;0.40;;;7.40;99.90;;;;;;5039513;28;20448;-80
2021/01/30 02:25:19;;;;;;;1.30;0.40;;;7.30;99.90;;;;;;5039015;28;20390;-80
2021/01/30 02:28:03;;;;;;;0.80;0.47;;;7.40;99.90;;;;;;5033229;28;20496;-80
2021/01/30 02:31:00;;;;;;;0.67;0.57;;;7.30;99.90;;;;;;5039646;28;20463;-80
2021/01/30 02:33:59;;;;;;;0.40;0.40;;;7.30;99.90;;;;;;5039074;28;20520;-80
2021/01/30 02:36:31;;;;;;;0.60;0.40;;;7.30;99.90;;;;;;5035511;28;21010;-78
2021/01/30 02:39:34;;;;;;;2.63;0.90;;;7.20;99.90;;;;;;5031008;28;20442;-78
2021/01/30 02:42:23;;;;;;;1.60;0.50;;;7.20;99.90;;;;;;5034684;28;20421;-79
2021/01/30 02:45:06;;;;;;;0.50;0.43;;;7.20;99.90;;;;;;5036802;28;20872;-79
2021/01/30 02:47:36;;;;;;;0.90;0.50;;;7.20;99.90;;;;;;5033602;28;20494;-79
2021/01/30 02:50:09;;;;;;;1.90;0.50;;;7.20;99.90;;;;;;5037348;28;20474;-80
2021/01/30 02:52:37;;;;;;;0.40;0.30;;;7.10;99.90;;;;;;5034263;28;20487;-80
2021/01/30 02:55:05;;;;;;;0.40;0.40;;;7.10;99.90;;;;;;5036154;28;20995;-79
2021/01/30 02:57:31;;;;;;;0.50;0.40;;;7.10;99.90;;;;;;5034027;28;20494;-79
2021/01/30 03:00:01;;;;;;;0.77;0.50;;;7.00;99.90;;;;;;5033277;28;20845;-79
2021/01/30 03:02:28;;;;;;;1.70;0.40;;;6.90;99.90;;;;;;5033170;28;20523;-79
2021/01/30 03:04:58;;;;;;;0.83;0.40;;;6.90;99.90;;;;;;5038038;28;20445;-79
2021/01/30 03:07:33;;;;;;;1.53;0.40;;;6.80;99.90;;;;;;5032539;28;20437;-79
2021/01/30 03:10:08;;;;;;;0.67;0.40;;;6.80;99.90;;;;;;5032803;28;20476;-79
2021/01/30 03:13:08;;;;;;;1.23;0.50;;;6.70;99.90;;;;;;5034391;28;20411;-79
2021/01/30 03:15:37;;;;;;;0.70;0.40;;;6.70;99.90;;;;;;5006243;28;20467;-79
2021/01/30 03:18:06;;;;;;;0.53;0.47;;;6.70;99.90;;;;;;5033148;28;20441;-79
2021/01/30 03:20:36;;;;;;;3.73;0.40;;;6.70;99.90;;;;;;5036373;28;20957;-80
2021/01/30 03:23:02;;;;;;;1.27;0.40;;;6.70;99.90;;;;;;5034200;28;20515;-79
2021/01/30 03:25:29;;;;;;;0.70;0.40;;;6.70;99.90;;;;;;5030472;28;20435;-80
2021/01/30 03:27:57;;;;;;;0.50;0.50;;;6.70;99.90;;;;;;5032780;28;20518;-79
2021/01/30 03:30:24;;;;;;;1.10;0.40;;;6.70;99.90;;;;;;5033490;28;20473;-79
2021/01/30 03:32:49;;;;;;;0.40;0.40;;;6.70;99.90;;;;;;5030639;28;20579;-79
2021/01/30 03:35:15;;;;;;;0.50;0.40;;;6.70;99.90;;;;;;5030950;28;20469;-80
2021/01/30 03:37:41;;;;;;;0.90;0.40;;;6.70;99.90;;;;;;5034027;28;20596;-79
2021/01/30 03:40:09;;;;;;;0.50;0.40;;;6.70;99.90;;;;;;5036608;28;20488;-79
2021/01/30 03:42:35;;;;;;;1.40;0.40;;;6.70;99.90;;;;;;5032189;28;20183;-80
2021/01/30 03:45:00;;;;;;;1.33;0.50;;;6.70;99.90;;;;;;5032329;28;20796;-79
2021/01/30 03:47:26;;;;;;;0.50;0.50;;;6.70;99.90;;;;;;5033083;28;20959;-79
2021/01/30 03:49:52;;;;;;;0.40;0.40;;;6.80;99.90;;;;;;5031544;28;20209;-79
2021/01/30 03:52:17;;;;;;;1.07;0.40;;;6.80;99.90;;;;;;5031771;28;20210;-81
2021/01/30 03:54:43;;;;;;;1.70;0.50;;;6.80;99.90;;;;;;5032614;28;20210;-79
2021/01/30 03:57:09;;;;;;;0.40;0.40;;;6.80;99.90;;;;;;5031660;28;20236;-79
2021/01/30 03:59:34;;;;;;;0.60;0.40;;;6.80;99.90;;;;;;5032897;28;20668;-79
2021/01/30 04:02:00;;;;;;;0.40;0.40;;;6.80;99.90;;;;;;5030479;28;20991;-79
2021/01/30 04:04:25;;;;;;;0.80;0.40;;;6.90;99.90;;;;;;5030256;28;20196;-79
2021/01/30 04:06:54;;;;;;;2.30;0.60;;;6.80;99.90;;;;;;5032388;28;20209;-80
2021/01/30 04:09:20;;;;;;;0.90;0.40;;;6.80;99.90;;;;;;5032895;28;20210;-79
2021/01/30 04:11:46;;;;;;;3.30;0.40;;;6.80;99.90;;;;;;5033292;28;20449;-79
2021/01/30 04:14:12;;;;;;;0.50;0.33;;;6.80;99.90;;;;;;5032954;28;20538;-79
2021/01/30 04:16:37;;;;;;;0.40;0.40;;;6.80;99.90;;;;;;5032373;28;20534;-80
2021/01/30 04:19:03;;;;;;;0.73;0.47;;;6.80;99.90;;;;;;5065694;28;20462;-79
2021/01/30 04:21:29;;;;;;;0.97;0.40;;;6.70;99.90;;;;;;5033377;28;20665;-79
2021/01/30 04:23:54;;;;;;;0.50;0.40;;;6.80;99.90;;;;;;5030616;28;20185;-79
2021/01/30 04:26:20;;;;;;;0.50;0.50;;;6.80;99.90;;;;;;5033942;28;20268;-79
2021/01/30 04:28:51;;;;;;;0.47;0.40;;;6.70;99.90;;;;;;5029770;28;20191;-79
2021/01/30 04:31:17;;;;;;;0.40;0.40;;;6.80;99.90;;;;;;5032325;28;20682;-79
2021/01/30 04:33:45;;;;;;;0.50;0.40;;;6.80;99.90;;;;;;5027861;28;20469;-79
2021/01/30 04:36:12;;;;;;;1.00;0.40;;;6.80;99.90;;;;;;5031820;28;20469;-79
2021/01/30 04:38:37;;;;;;;2.70;0.50;;;6.70;99.90;;;;;;5031879;28;20429;-79
2021/01/30 04:41:21;;;;;;;2.30;0.60;;;6.80;99.90;;;;;;5031736;28;20836;-79
2021/01/30 04:44:05;;;;;;;0.60;0.40;;;6.70;99.90;;;;;;5029057;28;20652;-79
2021/01/30 04:46:45;;;;;;;1.53;0.40;;;6.80;99.90;;;;;;5031039;28;20463;-78
2021/01/30 04:49:27;;;;;;;0.90;0.40;;;6.80;99.90;;;;;;5024006;28;20495;-78
2021/01/30 04:52:04;;;;;;;0.67;0.50;;;6.70;99.90;;;;;;5029791;28;20486;-78
2021/01/30 04:54:57;;;;;;;0.43;0.40;;;6.70;99.90;;;;;;5028413;28;20443;-79
2021/01/30 04:58:01;;;;;;;1.23;1.07;;;6.70;99.90;;;;;;5030052;28;20438;-79
2021/01/30 05:00:27;;;;;;;1.00;0.70;;;6.70;99.90;;;;;;5024988;28;20433;-78
2021/01/30 05:03:03;;;;;;;1.20;0.60;;;6.60;99.90;;;;;;5028171;28;20446;-78
2021/01/30 05:05:29;;;;;;;1.73;0.40;;;6.70;99.90;;;;;;5029562;28;20265;-79
2021/01/30 05:08:16;;;;;;;6.23;0.60;;;6.70;99.90;;;;;;5031923;28;20485;-79
2021/01/30 05:10:45;;;;;;;6.30;0.60;;;6.70;99.90;;;;;;5026679;28;20205;-78
2021/01/30 05:13:24;;;;;;;4.77;0.70;;;6.70;99.90;;;;;;5031236;28;20769;-78
2021/01/30 05:16:01;;;;;;;4.50;0.90;;;6.70;99.90;;;;;;5031518;28;20508;-78
2021/01/30 05:18:33;;;;;;;3.70;0.53;;;6.70;99.90;;;;;;5030652;28;20409;-78
2021/01/30 05:21:07;;;;;;;3.23;0.70;;;6.70;99.90;;;;;;5029120;28;20501;-79
2021/01/30 05:23:34;;;;;;;4.57;1.27;;;6.70;99.90;;;;;;5030774;28;20395;-79
2021/01/30 05:26:31;;;;;;;2.83;0.90;;;6.70;99.90;;;;;;5027588;28;20819;-78
2021/01/30 05:29:30;;;;;;;4.40;0.70;;;6.80;99.90;;;;;;5029161;28;20442;-78
2021/01/30 05:32:21;;;;;;;4.00;0.70;;;6.80;99.90;;;;;;5031107;28;20453;-78
2021/01/30 05:34:52;;;;;;;8.77;1.00;;;6.80;99.90;;;;;;5027686;28;20417;-78
2021/01/30 05:37:22;;;;;;;2.13;0.70;;;6.80;99.90;;;;;;5027838;28;21048;-79
2021/01/30 05:40:03;;;;;;;4.23;0.90;;;6.80;99.90;;;;;;5030475;28;20425;-78
2021/01/30 05:42:42;;;;;;;10.40;1.57;;;6.90;99.90;;;;;;5030293;28;20462;-79
2021/01/30 05:45:33;;;;;;;3.63;0.90;;;6.80;99.90;;;;;;5027039;28;20875;-78
2021/01/30 05:48:00;;;;;;;9.50;0.90;;;6.90;99.90;;;;;;5027778;28;20498;-79
2021/01/30 05:50:58;;;;;;;3.83;1.20;;;6.80;99.90;;;;;;5028035;28;20485;-79
2021/01/30 05:53:26;;;;;;;5.90;1.10;;;6.90;99.90;;;;;;5029003;28;20421;-79
2021/01/30 05:55:54;;;;;;;5.27;1.00;;;6.90;99.90;;;;;;5030952;28;20448;-78
2021/01/30 05:58:22;;;;;;;3.73;1.07;;;6.90;99.90;;;;;;5030466;28;20461;-79
2021/01/30 06:00:47;;;;;;;5.17;1.10;;;6.90;99.90;;;;;;5032630;28;20462;-75
2021/01/30 06:03:22;;;;;;;6.63;1.20;;;6.90;99.90;;;;;;5034854;28;20431;-75
2021/01/30 06:06:08;;;;;;;4.30;1.37;;;7.00;99.90;;;;;;5031787;28;21013;-75
2021/01/30 06:08:34;;;;;;;6.67;2.77;;;7.00;99.90;;;;;;5031905;28;20429;-75
2021/01/30 06:11:10;;;;;;;4.30;1.00;;;7.00;99.90;;;;;;5033678;28;20868;-75
2021/01/30 06:13:58;;;;;;;6.53;1.50;;;6.90;99.90;;;;;;5030747;28;20180;-75
2021/01/30 06:16:44;;;;;;;6.87;1.10;;;6.90;99.90;;;;;;5031965;28;20437;-74
2021/01/30 06:19:11;;;;;;;9.43;1.20;;;6.90;99.90;;;;;;5033818;28;20432;-75
2021/01/30 06:21:37;;;;;;;10.00;1.70;;;6.90;99.90;;;;;;5028198;28;20933;-75
2021/01/30 06:24:05;;;;;;;9.83;1.10;;;6.90;99.90;;;;;;5031214;28;20435;-75
2021/01/30 06:26:34;;;;;;;4.07;0.97;;;6.90;99.90;;;;;;5033434;28;20683;-75
2021/01/30 06:29:06;;;;;;;5.03;1.10;;;6.90;99.90;;;;;;5029481;28;20469;-75
2021/01/30 06:31:40;;;;;;;1.67;0.97;;;6.90;99.90;;;;;;5033350;28;20423;-75
2021/01/30 06:34:28;;;;;;;4.37;1.43;;;6.90;99.90;;;;;;5027431;28;20773;-75
2021/01/30 06:36:55;;;;;;;3.50;1.70;;;6.80;99.90;;;;;;5028790;28;20550;-74
2021/01/30 06:39:31;;;;;;;6.60;1.10;;;6.80;99.90;;;;;;5028402;28;20446;-75
2021/01/30 06:42:06;;;;;;;9.27;4.07;;;6.80;99.90;;;;;;5033160;28;20425;-75
2021/01/30 06:44:31;;;;;;;4.80;1.43;;;6.80;99.90;;;;;;5031095;28;20439;-75
2021/01/30 06:47:08;;;;;;;1.60;1.50;;;6.80;99.90;;;;;;5033071;28;20800;-75
2021/01/30 06:49:44;;;;;;;11.10;1.43;;;6.70;99.90;;;;;;5028642;28;20503;-75
2021/01/30 06:52:21;;;;;;;7.80;1.40;;;6.70;99.90;;;;;;5062782;28;20492;-73
2021/01/30 06:55:05;;;;;;;2.20;1.00;;;6.80;99.90;;;;;;5030174;28;20435;-73
2021/01/30 06:57:34;;;;;;;7.10;1.33;;;6.70;99.90;;;;;;5032863;28;20790;-71
2021/01/30 07:00:25;;;;;;;8.57;1.33;;;6.80;99.90;;;;;;5028404;28;20439;-74
2021/01/30 07:03:03;;;;;;;3.23;0.70;;;6.80;99.90;;;;;;5023518;28;20452;-73
2021/01/30 07:05:35;;;;;;;4.60;1.23;;;6.70;99.90;;;;;;5031827;28;20797;-73
2021/01/30 07:08:19;;;;;;;4.93;1.40;;;6.70;99.90;;;;;;5032408;28;20433;-73
2021/01/30 07:11:03;;;;;;;8.67;2.30;;;6.70;99.90;;;;;;5028355;28;20979;-73
2021/01/30 07:13:46;;;;;;;14.03;1.50;;;6.80;99.90;;;;;;5032623;28;20594;-73
2021/01/30 07:16:21;;;;;;;4.00;1.30;;;6.80;99.90;;;;;;5029636;28;20469;-73
2021/01/30 07:19:01;;;;;;;8.20;2.20;;;6.90;99.90;;;;;;5032358;28;20917;-73
2021/01/30 07:21:31;;;;;;;5.03;1.37;;;6.90;99.90;;;;;;5028941;28;20471;-73
2021/01/30 07:24:18;;;;;;;8.33;1.60;;;6.90;99.90;;;;;;5032154;28;20793;-73
2021/01/30 07:27:02;;;;;;;5.77;1.37;;;7.00;99.90;;;;;;5030732;28;20982;-73
2021/01/30 07:29:44;;;;;;;13.07;1.40;;;7.00;99.90;;;;;;5031858;28;20466;-73
2021/01/30 07:32:13;;;;;;;8.80;1.67;;;7.10;99.90;;;;;;5030965;28;20537;-73
2021/01/30 07:35:11;;;;;;;9.57;1.80;;;7.20;99.90;;;;;;5028359;28;20788;-73
2021/01/30 07:37:53;;;;;;;9.80;1.50;;;7.30;99.90;;;;;;5033509;28;20461;-73
2021/01/30 07:40:29;;;;;;;6.97;1.80;;;7.40;99.90;;;;;;5029385;28;20430;-75
2021/01/30 07:43:02;;;;;;;5.80;1.03;;;7.40;99.90;;;;;;5032704;28;20994;-76
2021/01/30 07:45:32;;;;;;;10.67;1.50;;;7.50;99.90;;;;;;5031737;28;20419;-76
2021/01/30 07:48:13;;;;;;;8.83;1.77;;;7.50;99.90;;;;;;5032836;28;20532;-78
2021/01/30 07:50:44;;;;;;;7.50;1.30;;;7.60;99.90;;;;;;5028767;28;20518;-76
2021/01/30 07:53:17;;;;;;;5.97;2.00;;;7.60;99.90;;;;;;5028993;28;20891;-75
2021/01/30 07:56:11;;;;;;;4.07;1.50;;;7.60;99.90;;;;;;5028573;28;20509;-75
2021/01/30 07:58:46;;;;;;;4.70;1.10;;;7.60;99.90;;;;;;5027733;28;20435;-76
2021/01/30 08:01:56;;;;;;;8.77;1.43;;;7.60;99.90;;;;;;5026879;28;20426;-75
2021/01/30 08:04:59;;;;;;;9.60;1.47;;;7.60;99.90;;;;;;5027049;28;20530;-75
2021/01/30 08:08:08;;;;;;;8.73;2.67;;;7.70;99.90;;;;;;5028571;28;20455;-75
2021/01/30 08:10:57;;;;;;;11.53;1.50;;;7.70;99.90;;;;;;4993208;28;20483;-76
2021/01/30 08:13:41;;;;;;;6.53;1.77;;;7.70;99.90;;;;;;5026466;28;20434;-74
2021/01/30 08:16:32;;;;;;;6.50;1.40;;;7.80;99.90;;;;;;5027289;28;20516;-76
2021/01/30 08:19:06;;;;;;;12.53;1.40;;;7.80;99.90;;;;;;5031462;28;20531;-74
2021/01/30 08:21:55;;;;;;;6.93;1.10;;;7.80;99.90;;;;;;5031980;28;20428;-73
2021/01/30 08:24:27;;;;;;;5.30;1.80;;;7.80;99.90;;;;;;5026549;28;20818;-73
2021/01/30 08:27:02;;;;;;;5.10;1.53;;;7.80;99.90;;;;;;5029801;28;20434;-74
2021/01/30 08:29:47;;;;;;;5.90;0.97;;;7.80;99.90;;;;;;5032322;28;20469;-74
2021/01/30 08:32:25;;;;;;;7.40;1.80;;;7.80;99.90;;;;;;5028050;28;20422;-73
2021/01/30 08:35:15;;;;;;;7.80;1.60;;;7.80;99.90;;;;;;5028349;28;20438;-73
2021/01/30 08:37:40;;;;;;;10.37;1.47;;;7.80;99.90;;;;;;4989430;28;20478;-75
2021/01/30 08:40:16;;;;;;;7.87;1.03;;;7.80;99.90;;;;;;5029011;28;20435;-76
2021/01/30 08:42:56;;;;;;;6.27;2.00;;;7.80;99.90;;;;;;5027809;28;20179;-74
2021/01/30 08:45:27;;;;;;;6.93;1.60;;;7.80;99.90;;;;;;5028182;28;20955;-73
2021/01/30 08:48:06;;;;;;;3.67;1.27;;;7.80;99.90;;;;;;5030553;28;20687;-73
2021/01/30 08:50:47;;;;;;;8.83;1.77;;;7.80;99.90;;;;;;5027532;28;20483;-73
2021/01/30 08:53:26;;;;;;;8.57;2.30;;;7.80;99.90;;;;;;5025682;28;20430;-73
2021/01/30 08:56:00;;;;;;;9.87;3.43;;;7.80;99.90;;;;;;5027119;28;20458;-74
2021/01/30 08:58:37;;;;;;;5.30;1.90;;;7.90;99.90;;;;;;5030157;28;20413;-73
2021/01/30 09:01:20;;;;;;;17.60;2.90;;;7.90;99.90;;;;;;5029053;28;20455;-73
2021/01/30 09:03:57;;;;;;;7.23;1.60;;;8.00;99.90;;;;;;5026036;28;20443;-74
2021/01/30 09:06:40;;;;;;;8.07;4.00;;;8.00;99.90;;;;;;5027069;28;20477;-74
2021/01/30 09:09:11;;;;;;;8.20;3.70;;;8.10;99.90;;;;;;5058095;28;20808;-73
2021/01/30 09:11:53;;;;;;;6.10;2.57;;;8.10;99.90;;;;;;5028826;28;20456;-73
2021/01/30 09:14:19;;;;;;;8.10;1.87;;;8.20;99.90;;;;;;5026974;28;20822;-73
2021/01/30 09:16:56;;;;;;;13.43;1.90;;;8.20;99.90;;;;;;5029349;28;20464;-75
2021/01/30 09:19:28;;;;;;;4.90;2.13;;;8.20;99.90;;;;;;5030132;28;20186;-73
2021/01/30 09:22:04;;;;;;;13.70;5.70;;;8.20;99.90;;;;;;5029979;28;20859;-74
2021/01/30 09:25:01;;;;;;;7.17;3.30;;;8.20;99.90;;;;;;5029474;28;21078;-73
2021/01/30 09:27:30;;;;;;;9.10;4.27;;;8.20;99.90;;;;;;4992469;28;20463;-71
2021/01/30 09:30:11;;;;;;;9.23;3.03;;;8.30;99.90;;;;;;5028136;28;20463;-74
2021/01/30 09:32:44;;;;;;;12.60;3.37;;;8.40;99.90;;;;;;5027906;28;20432;-74
2021/01/30 09:35:38;;;;;;;10.03;2.93;;;8.40;99.90;;;;;;5028339;28;20426;-76
2021/01/30 09:38:26;;;;;;;9.93;3.77;;;8.40;99.90;;;;;;5028980;28;20439;-73
2021/01/30 09:41:20;;;;;;;8.93;4.03;;;8.40;99.90;;;;;;5031987;28;20463;-76
2021/01/30 09:43:46;;;;;;;14.33;2.80;;;8.40;99.90;;;;;;5033349;28;20774;-73
2021/01/30 09:46:19;;;;;;;9.67;4.10;;;8.50;99.90;;;;;;5033369;28;20446;-74
2021/01/30 09:48:47;;;;;;;10.53;2.47;;;8.50;99.90;;;;;;5030743;28;20188;-74
2021/01/30 09:51:12;;;;;;;10.00;3.07;;;8.60;99.90;;;;;;5033667;28;20438;-74
2021/01/30 09:54:01;;;;;;;9.33;2.40;;;8.70;99.90;;;;;;5029179;28;20951;-74
2021/01/30 09:56:34;;;;;;;13.40;2.67;;;8.70;99.90;;;;;;5029144;28;20759;-74
2021/01/30 09:59:00;;;;;;;10.67;3.23;;;8.70;99.90;;;;;;5032915;28;20525;-74
2021/01/30 10:01:38;;;;;;;13.50;3.10;;;8.70;99.90;;;;;;5033753;28;20415;-74
2021/01/30 10:04:17;;;;;;;9.47;2.33;;;8.80;99.90;;;;;;5031360;28;20518;-73
2021/01/30 10:06:45;;;;;;;2.60;1.80;;;8.80;99.90;;;;;;5031459;28;20470;-74
2021/01/30 10:09:23;;;;;;;10.20;2.93;;;8.80;99.90;;;;;;5033204;28;20848;-73
2021/01/30 10:11:54;;;;;;;7.23;1.90;;;8.90;99.90;;;;;;5031350;28;20428;-76
2021/01/30 10:14:21;;;;;;;8.73;2.17;;;8.90;99.90;;;;;;5033293;28;20449;-74
2021/01/30 10:17:00;;;;;;;7.77;2.93;;;8.90;99.90;;;;;;5032733;28;20992;-74
2021/01/30 10:19:29;;;;;;;9.90;3.50;;;8.90;99.90;;;;;;5026397;28;20901;-73
2021/01/30 10:21:55;;;;;;;6.93;2.70;;;9.00;99.90;;;;;;5029337;28;20495;-74
2021/01/30 10:24:30;;;;;;;7.53;2.30;;;9.10;99.90;;;;;;5033031;28;20518;-73
2021/01/30 10:27:13;;;;;;;8.00;2.07;;;9.10;99.90;;;;;;5031856;28;20438;-73
2021/01/30 10:29:38;;;;;;;8.83;2.03;;;9.10;99.90;;;;;;5025044;28;20502;-74
2021/01/30 10:32:10;;;;;;;9.70;2.03;;;9.00;99.90;;;;;;5031682;28;20487;-73
2021/01/30 10:34:40;;;;;;;4.77;1.27;;;9.00;99.90;;;;;;5028464;28;20196;-73
2021/01/30 10:37:10;;;;;;;6.50;1.77;;;9.00;99.90;;;;;;5025864;28;20485;-74
2021/01/30 10:39:40;;;;;;;4.50;1.90;;;9.00;99.90;;;;;;5031489;28;20473;-73
2021/01/30 10:42:14;;;;;;;11.47;2.40;;;8.90;99.90;;;;;;5056164;28;20434;-74
2021/01/30 10:44:45;;;;;;;4.40;1.13;;;9.00;99.90;;;;;;5029896;28;20447;-74
2021/01/30 10:47:11;;;;;;;8.90;1.57;;;8.90;99.90;;;;;;5030253;28;20961;-73
2021/01/30 10:49:37;;;;;;;3.03;0.90;;;8.90;99.90;;;;;;5028494;28;20469;-74
2021/01/30 10:52:21;;;;;;;1.87;1.20;;;8.80;99.90;;;;;;5032965;28;20427;-73
2021/01/30 10:54:47;;;;;;;3.73;3.07;;;8.70;99.90;;;;;;5029065;28;20413;-76
2021/01/30 10:57:18;;;;;;;5.97;2.83;;;8.70;99.90;;;;;;5035472;28;20514;-73
2021/01/30 10:59:46;;;;;;;2.80;1.30;;;8.70;99.90;;;;;;5032228;28;20181;-73
2021/01/30 11:02:21;;;;;;;5.97;1.40;;;8.70;99.90;;;;;;5028220;28;21011;-73
2021/01/30 11:05:00;;;;;;;2.80;0.70;;;8.50;99.90;;;;;;5030592;28;20968;-73
2021/01/30 11:07:34;;;;;;;1.70;0.87;;;8.60;99.90;;;;;;5028266;28;20468;-73
2021/01/30 11:10:00;;;;;;;6.17;0.90;;;8.60;99.90;;;;;;5029161;28;20480;-74
2021/01/30 11:12:26;;;;;;;4.30;0.80;;;8.60;99.90;;;;;;5030327;28;20441;-74
2021/01/30 11:14:51;;;;;;;4.17;1.20;;;8.50;99.90;;;;;;5032118;28;20188;-75
2021/01/30 11:17:34;;;;;;;7.60;1.50;;;8.50;99.90;;;;;;5034262;28;20408;-73
2021/01/30 11:20:00;;;;;;;3.27;1.00;;;8.50;99.90;;;;;;5026075;28;20688;-73
2021/01/30 11:22:28;;;;;;;3.50;1.40;;;8.40;99.90;;;;;;5028482;28;20503;-73
2021/01/30 11:25:07;;;;;;;3.63;1.50;;;8.40;99.90;;;;;;5030252;28;20433;-76
2021/01/30 11:27:33;;;;;;;2.30;1.00;;;8.50;99.90;;;;;;5031444;28;20468;-74
2021/01/30 11:30:21;;;;;;;1.20;1.10;;;8.50;99.90;;;;;;5031654;28;20471;-73
2021/01/30 11:32:53;;;;;;;4.17;1.10;;;8.60;99.90;;;;;;5028939;28;20206;-74
2021/01/30 11:35:33;;;;;;;5.90;0.93;;;8.60;99.90;;;;;;5029525;28;20930;-75
2021/01/30 11:38:04;;;;;;;4.97;0.90;;;8.60;99.90;;;;;;5028226;28;20437;-74
2021/01/30 11:40:30;;;;;;;5.87;0.83;;;8.60;99.90;;;;;;5032845;28;20414;-75
2021/01/30 11:42:56;;;;;;;6.43;1.40;;;8.60;99.90;;;;;;5031450;28;20422;-74
2021/01/30 11:45:21;;;;;;;3.10;0.90;;;8.60;99.90;;;;;;5027846;28;20443;-73
2021/01/30 11:47:47;;;;;;;5.47;0.87;;;8.60;99.90;;;;;;5031405;28;20204;-76
2021/01/30 11:50:12;;;;;;;2.87;0.83;;;8.60;99.90;;;;;;5029256;28;20345;-73
2021/01/30 11:52:38;;;;;;;2.20;1.20;;;8.70;99.90;;;;;;5028682;28;20181;-73
2021/01/30 11:55:04;;;;;;;7.03;2.43;;;8.60;99.90;;;;;;5029443;28;20200;-73
2021/01/30 11:57:30;;;;;;;4.90;1.20;;;8.70;99.90;;;;;;5032314;28;20201;-74
2021/01/30 11:59:56;;;;;;;3.57;1.00;;;8.70;99.90;;;;;;5030961;28;20441;-74
2021/01/30 12:02:29;;;;;;;3.37;1.00;;;8.60;99.90;;;;;;5032262;28;20476;-73
2021/01/30 12:04:55;;;;;;;7.57;1.27;;;8.70;99.90;;;;;;5029876;28;20567;-74
2021/01/30 12:07:21;;;;;;;6.47;2.40;;;8.70;99.90;;;;;;5031451;28;20446;-74
2021/01/30 12:09:46;;;;;;;2.97;1.23;;;8.70;99.90;;;;;;5030833;28;20575;-76
2021/01/30 12:12:12;;;;;;;4.17;1.77;;;8.80;99.90;;;;;;5029450;28;20558;-74
2021/01/30 12:14:37;;;;;;;9.43;2.20;;;8.80;99.90;;;;;;5030920;28;20209;-74
2021/01/30 12:17:04;;;;;;;4.07;1.20;;;8.80;99.90;;;;;;5027591;28;20290;-74
2021/01/30 12:19:29;;;;;;;4.57;1.70;;;8.70;99.90;;;;;;5031889;28;20667;-75
2021/01/30 12:21:55;;;;;;;5.03;2.20;;;8.70;99.90;;;;;;5026518;28;20480;-75
2021/01/30 12:24:20;;;;;;;4.63;1.00;;;8.70;99.90;;;;;;5028871;28;20205;-72
2021/01/30 12:26:46;;;;;;;5.50;0.90;;;8.70;99.90;;;;;;5029050;28;20222;-73
2021/01/30 12:29:11;;;;;;;5.00;1.50;;;8.70;99.90;;;;;;5028975;28;20278;-75
2021/01/30 12:31:37;;;;;;;8.50;5.60;;;8.60;99.90;;;;;;5030753;28;20184;-74
2021/01/30 12:34:03;;;;;;;11.43;4.37;;;8.60;99.90;;;;;;5031332;28;20183;-73
2021/01/30 12:36:28;;;;;;;16.50;10.03;;;8.60;99.90;;;;;;5028415;28;20470;-76
2021/01/30 12:38:54;;;;;;;8.50;3.13;;;8.50;99.90;;;;;;5027424;28;20184;-74
2021/01/30 12:41:20;;;;;;;11.27;1.70;;;8.40;99.90;;;;;;5030684;28;20177;-74
2021/01/30 12:43:45;;;;;;;5.70;2.50;;;8.40;99.90;;;;;;5028837;28;20176;-73
2021/01/30 12:46:11;;;;;;;4.00;1.37;;;8.40;99.90;;;;;;5030526;28;20200;-74
2021/01/30 12:48:37;;;;;;;3.83;1.87;;;8.30;99.90;;;;;;5026089;28;20255;-75
2021/01/30 12:51:03;;;;;;;5.67;4.23;;;8.30;99.90;;;;;;5026300;28;20209;-74
2021/01/30 12:53:30;;;;;;;3.90;1.57;;;8.30;99.90;;;;;;5027826;28;20193;-74
2021/01/30 12:55:56;;;;;;;4.63;1.60;;;8.30;99.90;;;;;;5030425;28;20429;-74
2021/01/30 12:58:25;;;;;;;4.63;0.70;;;8.30;99.90;;;;;;5029964;28;20763;-75
2021/01/30 13:00:51;;;;;;;4.40;0.73;;;8.20;99.90;;;;;;5030622;28;20184;-75
2021/01/30 13:03:17;;;;;;;6.00;1.10;;;8.20;99.90;;;;;;5028486;28;20534;-75
2021/01/30 13:05:43;;;;;;;7.03;1.13;;;8.10;99.90;;;;;;5030914;28;20574;-75
2021/01/30 13:08:09;;;;;;;1.33;0.80;;;8.20;99.90;;;;;;5034471;28;20317;-75
2021/01/30 13:10:35;;;;;;;4.33;1.40;;;8.20;99.90;;;;;;5033301;28;21069;-74
2021/01/30 13:13:00;;;;;;;6.73;1.43;;;8.20;99.90;;;;;;5032508;28;20188;-75
2021/01/30 13:15:26;;;;;;;7.73;1.40;;;8.10;99.90;;;;;;5035836;28;20174;-75
2021/01/30 13:17:51;;;;;;;2.20;0.90;;;8.10;99.90;;;;;;5032784;28;20207;-74
2021/01/30 13:20:19;;;;;;;5.50;1.93;;;8.00;99.90;;;;;;5033443;28;20189;-73
2021/01/30 13:22:45;;;;;;;4.00;1.73;;;8.00;99.90;;;;;;5032114;28;20245;-76
2021/01/30 13:25:13;;;;;;;10.17;1.73;;;8.00;99.90;;;;;;5034087;28;20432;-73